Startpagina
METAR-TAF:

METAR-TAF

Vliegvelden :

Cambridge, Engeland

breedte: 52-12N, lengte: 000-11E, hoogte: 15 m

Actueel weer

Dit bericht is 7 uur en het 45 minuten geleden gemaakt, om 17:50 UTC
Wind 3 kt uit variabele richting
Temperatuur 7°C
Vochtigheid 87%
Druk 1028 hPa
Zicht 10 km of meer
Weinig wolken op 1000 ft
Gebroken wolken op 1200 ft

METAR: EGSC 231750Z VRB03KT 9999 FEW010 BKN012 07/05 Q1028

Tijdstip: 01:35 (01:35 UTC)

Verwachting

Dit bericht is 11 uur en het 38 minuten geleden gemaakt, om 13:57 UTC
Verwachting geldig van 23 om 15 UTC tot 23 om 19 UTC
Wind 4 kt uit variabele richting
Zicht 10 km of meer
Gebroken wolken op 1500 ft
Tijdelijke
van 23 om 15 UTC tot 23 om 19 UTC
Zicht: 8000 m
Gebroken wolken op 1000 ft

TAF: EGSC 231357Z 2315/2319 VRB04KT 9999 BKN015 TEMPO 2315/2319 8000 BKN010

Waarnemingen en weersverwachtingen van meer dan 4000 vliegvelden (METAR en TAF).

De beschikbare stations zijn de gele en rode punten op de kaart.

Ga met uw muis naar het station om de naam te zien.

Klik dan om waarnemingen en weersverwachtingen te zien.

kaart wijzigen: klik op de groene knoppen met een zwart kruis om in te zoomen, op de groene knop met een streepje om uit te zoomen of op de groene pijlen voor aangrenzende kaarten.


METAR-TAF: